Time;durP1;ratioP1;P1;durP2;ratioP2;P2;SDS_P1;SDS_P2;PMS_P1;PMS_P2;Temp;Humidity;BMP_temperature;BMP_pressure;BME280_temperature;BME280_humidity;BME280_pressure;Samples;Min_cycle;Max_cycle;Signal;HPM_P1;HPM_P2
2022/07/19 00:00:09;;;;;;;8.70;6.15;;;20.50;99.90;;;;;;5068364;28;20044;-51
2022/07/19 00:02:35;;;;;;;10.52;6.40;;;20.40;99.90;;;;;;5068776;28;20541;-53
2022/07/19 00:05:01;;;;;;;12.65;6.30;;;20.40;99.90;;;;;;5067755;28;20474;-56
2022/07/19 00:07:27;;;;;;;10.60;6.32;;;20.40;99.90;;;;;;5067097;28;20049;-54
2022/07/19 00:09:53;;;;;;;10.98;6.28;;;20.30;99.90;;;;;;5068734;28;20044;-53
2022/07/19 00:12:19;;;;;;;11.77;6.53;;;20.20;99.90;;;;;;5068355;28;20066;-52
2022/07/19 00:14:45;;;;;;;9.93;6.30;;;20.20;99.90;;;;;;5067697;28;20024;-55
2022/07/19 00:17:10;;;;;;;12.07;6.93;;;20.10;99.90;;;;;;5064336;28;20097;-53
2022/07/19 00:19:36;;;;;;;11.55;6.68;;;20.10;99.90;;;;;;5067770;28;20040;-55
2022/07/19 00:22:02;;;;;;;11.27;6.95;;;20.00;99.90;;;;;;5068452;28;20390;-53
2022/07/19 00:24:27;;;;;;;10.15;6.75;;;20.00;99.90;;;;;;5068288;28;20044;-51
2022/07/19 00:26:53;;;;;;;13.07;6.70;;;20.00;99.90;;;;;;5051457;28;20047;-54
2022/07/19 00:29:18;;;;;;;10.77;6.30;;;19.90;99.90;;;;;;5083087;22;20103;-57
2022/07/19 00:31:44;;;;;;;9.15;5.70;;;19.90;99.90;;;;;;5061231;28;20048;-56
2022/07/19 00:34:10;;;;;;;11.15;7.30;;;19.80;99.90;;;;;;5043750;28;20071;-58
2022/07/19 00:36:36;;;;;;;9.18;7.22;;;19.80;99.90;;;;;;5050236;28;20253;-58
2022/07/19 00:39:01;;;;;;;10.10;7.32;;;19.80;99.90;;;;;;5068296;28;20036;-58
2022/07/19 00:41:27;;;;;;;10.93;7.22;;;19.70;99.90;;;;;;5047829;28;20036;-58
2022/07/19 00:43:53;;;;;;;11.07;7.28;;;19.60;99.90;;;;;;5050253;28;20085;-58
2022/07/19 00:46:21;;;;;;;11.80;7.90;;;19.50;99.90;;;;;;5048589;28;20048;-58
2022/07/19 00:48:48;;;;;;;8.95;6.95;;;19.50;99.90;;;;;;5065355;28;20554;-58
2022/07/19 00:51:15;;;;;;;11.75;7.07;;;19.50;99.90;;;;;;5067582;28;20493;-58
2022/07/19 00:53:42;;;;;;;9.45;6.70;;;19.40;99.90;;;;;;5068721;28;20040;-58
2022/07/19 00:56:09;;;;;;;10.38;7.53;;;19.40;99.90;;;;;;5066695;28;20048;-58
2022/07/19 00:58:36;;;;;;;13.85;7.95;;;19.30;99.90;;;;;;5067635;28;20032;-58
2022/07/19 01:01:04;;;;;;;10.18;7.75;;;19.30;99.90;;;;;;5067205;28;20048;-58
2022/07/19 01:03:30;;;;;;;13.15;7.68;;;19.20;99.90;;;;;;5067237;28;20119;-59
2022/07/19 01:05:56;;;;;;;16.23;7.93;;;19.30;99.90;;;;;;5068492;28;20119;-58
2022/07/19 01:08:22;;;;;;;12.15;7.43;;;19.20;99.90;;;;;;5067793;28;20044;-59
2022/07/19 01:10:48;;;;;;;11.80;8.23;;;19.20;99.90;;;;;;5067576;28;20040;-59
2022/07/19 01:13:15;;;;;;;11.15;7.13;;;19.20;99.90;;;;;;5065628;28;20080;-58
2022/07/19 01:15:42;;;;;;;15.65;8.00;;;19.20;99.90;;;;;;5084723;28;20437;-58
2022/07/19 01:18:08;;;;;;;13.00;7.18;;;19.10;99.90;;;;;;5066856;28;20046;-58
2022/07/19 01:20:34;;;;;;;13.48;7.00;;;19.10;99.90;;;;;;5064812;28;20566;-58
2022/07/19 01:23:00;;;;;;;12.52;7.93;;;19.20;99.90;;;;;;5067701;28;20040;-59
2022/07/19 01:25:32;;;;;;;9.15;6.35;;;19.10;99.90;;;;;;5063436;28;20427;-59
2022/07/19 01:27:58;;;;;;;11.60;7.50;;;19.10;99.90;;;;;;5050099;28;20056;-58
2022/07/19 01:30:26;;;;;;;15.52;7.63;;;19.10;99.90;;;;;;5064327;28;20083;-58
2022/07/19 01:32:53;;;;;;;10.68;7.20;;;19.10;99.90;;;;;;5065634;28;20447;-59
2022/07/19 01:35:19;;;;;;;10.93;8.00;;;19.00;99.90;;;;;;5062808;28;20586;-59
2022/07/19 01:37:45;;;;;;;9.93;7.88;;;19.00;99.90;;;;;;5051427;28;20097;-58
2022/07/19 01:40:13;;;;;;;10.95;7.63;;;19.00;99.90;;;;;;5073444;28;20039;-58
2022/07/19 01:42:39;;;;;;;10.88;7.68;;;18.90;99.90;;;;;;5055381;28;20078;-59
2022/07/19 01:45:06;;;;;;;9.65;6.30;;;18.90;99.90;;;;;;5064829;28;20591;-57
2022/07/19 01:47:33;;;;;;;12.15;8.43;;;18.90;99.90;;;;;;5067081;28;20491;-58
2022/07/19 01:49:58;;;;;;;11.32;6.70;;;18.80;99.90;;;;;;5065566;28;20391;-58
2022/07/19 01:52:24;;;;;;;16.05;8.55;;;18.80;99.90;;;;;;5053524;28;20139;-59
2022/07/19 01:54:50;;;;;;;11.05;8.05;;;18.80;99.90;;;;;;5049678;28;20032;-58
2022/07/19 01:57:15;;;;;;;10.48;8.10;;;18.80;99.90;;;;;;5066800;28;20045;-58
2022/07/19 01:59:41;;;;;;;14.82;8.52;;;18.80;99.90;;;;;;5068360;28;20063;-58
2022/07/19 02:02:07;;;;;;;15.25;8.07;;;18.80;99.90;;;;;;5067585;28;20363;-59
2022/07/19 02:04:33;;;;;;;13.18;9.02;;;18.80;99.90;;;;;;5067102;28;20410;-58
2022/07/19 02:06:59;;;;;;;13.82;8.77;;;18.70;99.90;;;;;;5064681;28;20414;-58
2022/07/19 02:09:25;;;;;;;9.68;6.53;;;18.70;99.90;;;;;;5065030;28;20083;-58
2022/07/19 02:11:51;;;;;;;12.43;8.88;;;18.70;99.90;;;;;;5061078;28;20039;-59
2022/07/19 02:14:17;;;;;;;10.50;8.40;;;18.70;99.90;;;;;;5066095;28;20040;-58
2022/07/19 02:16:43;;;;;;;9.65;7.45;;;18.70;99.90;;;;;;5066618;28;20044;-58
2022/07/19 02:19:09;;;;;;;11.40;7.40;;;18.70;99.90;;;;;;5064484;28;20045;-58
2022/07/19 02:21:36;;;;;;;12.35;7.43;;;18.70;99.90;;;;;;5069874;28;20320;-58
2022/07/19 02:24:03;;;;;;;14.35;7.88;;;18.70;99.90;;;;;;5067118;28;20108;-58
2022/07/19 02:26:28;;;;;;;8.25;6.63;;;18.70;99.90;;;;;;5069225;28;20541;-57
2022/07/19 02:28:54;;;;;;;10.32;7.65;;;18.70;99.90;;;;;;5065533;28;20032;-59
2022/07/19 02:31:20;;;;;;;8.05;6.72;;;18.70;99.90;;;;;;5070800;28;20506;-59
2022/07/19 02:33:46;;;;;;;11.48;7.28;;;18.70;99.90;;;;;;5086626;28;20028;-59
2022/07/19 02:36:12;;;;;;;10.38;7.65;;;18.70;99.90;;;;;;5069924;28;20411;-58
2022/07/19 02:38:38;;;;;;;9.75;7.28;;;18.70;99.90;;;;;;5071214;28;20037;-58
2022/07/19 02:41:04;;;;;;;13.40;7.65;;;18.70;99.90;;;;;;5070688;28;20040;-59
2022/07/19 02:43:30;;;;;;;11.85;7.65;;;18.70;99.90;;;;;;5069721;28;20040;-59
2022/07/19 02:45:55;;;;;;;12.35;8.05;;;18.70;99.90;;;;;;5069406;28;20399;-60
2022/07/19 02:48:21;;;;;;;12.43;8.20;;;18.60;99.90;;;;;;5034126;28;20442;-59
2022/07/19 02:50:47;;;;;;;9.93;6.22;;;18.60;99.90;;;;;;5086015;28;20043;-59
2022/07/19 02:53:13;;;;;;;10.80;7.75;;;18.60;99.90;;;;;;5066915;28;20080;-59
2022/07/19 02:55:38;;;;;;;8.70;7.60;;;18.60;99.90;;;;;;5069872;28;20036;-59
2022/07/19 02:58:04;;;;;;;8.90;6.47;;;18.60;99.90;;;;;;5034915;28;20064;-59
2022/07/19 03:00:30;;;;;;;8.02;5.88;;;18.60;99.90;;;;;;5069593;28;20082;-58
2022/07/19 03:03:43;;;;;;;10.27;7.80;;;18.50;99.90;;;;;;5067782;28;20098;-59
2022/07/19 03:05:44;;;;;;;8.43;6.88;;;18.50;99.90;;;;;;5068513;28;20087;-59
2022/07/19 03:08:10;;;;;;;12.32;7.68;;;18.50;99.90;;;;;;5058568;28;20077;-60
2022/07/19 03:10:36;;;;;;;11.55;7.90;;;18.40;99.90;;;;;;5067959;28;20134;-59
2022/07/19 03:13:03;;;;;;;11.25;7.53;;;18.40;99.90;;;;;;5061429;28;20048;-59
2022/07/19 03:15:28;;;;;;;11.27;7.55;;;18.40;99.90;;;;;;5038776;28;20044;-59
2022/07/19 03:17:54;;;;;;;9.93;8.13;;;18.40;99.90;;;;;;5069004;28;20402;-59
2022/07/19 03:20:20;;;;;;;9.15;6.30;;;18.30;99.90;;;;;;5064165;28;20048;-59
2022/07/19 03:22:46;;;;;;;12.25;8.27;;;18.30;99.90;;;;;;5062970;28;20119;-59
2022/07/19 03:25:11;;;;;;;9.48;6.40;;;18.30;99.90;;;;;;5067676;28;20537;-59
2022/07/19 03:27:37;;;;;;;9.85;7.35;;;18.30;99.90;;;;;;5051391;28;21004;-59
2022/07/19 03:30:04;;;;;;;9.63;7.10;;;18.30;99.90;;;;;;5062233;28;20036;-58
2022/07/19 03:32:30;;;;;;;10.40;7.30;;;18.40;99.90;;;;;;5067203;28;20055;-58
2022/07/19 03:34:55;;;;;;;10.05;7.35;;;18.30;99.90;;;;;;5067726;28;20040;-58
2022/07/19 03:37:21;;;;;;;6.70;5.75;;;18.30;99.90;;;;;;5069219;28;20419;-58
2022/07/19 03:39:47;;;;;;;13.32;6.75;;;18.30;99.90;;;;;;5045005;28;20171;-59
2022/07/19 03:42:12;;;;;;;7.50;5.68;;;18.30;99.90;;;;;;5066392;28;20048;-58
2022/07/19 03:44:38;;;;;;;10.35;6.95;;;18.30;99.90;;;;;;5062645;28;20062;-59
2022/07/19 03:47:04;;;;;;;10.32;7.35;;;18.30;99.90;;;;;;5069713;28;20033;-59
2022/07/19 03:49:30;;;;;;;7.88;5.78;;;18.30;99.90;;;;;;5067042;28;20048;-58
2022/07/19 03:51:55;;;;;;;9.40;7.28;;;18.30;99.90;;;;;;5068115;28;20064;-59
2022/07/19 03:54:21;;;;;;;10.73;6.88;;;18.20;99.90;;;;;;5034950;28;20045;-59
2022/07/19 03:56:47;;;;;;;11.40;7.93;;;18.20;99.90;;;;;;5068485;28;20033;-59
2022/07/19 03:59:13;;;;;;;10.57;7.18;;;18.20;99.90;;;;;;5066829;28;20032;-59
2022/07/19 04:01:38;;;;;;;13.75;8.00;;;18.10;99.90;;;;;;5049895;28;20102;-59
2022/07/19 04:04:05;;;;;;;13.18;8.32;;;18.10;99.90;;;;;;5068304;28;20036;-58
2022/07/19 04:06:30;;;;;;;9.60;7.25;;;18.10;99.90;;;;;;5051538;28;20042;-58
2022/07/19 04:08:56;;;;;;;11.70;7.68;;;18.10;99.90;;;;;;5066279;28;20033;-59
2022/07/19 04:11:22;;;;;;;15.25;8.50;;;18.10;99.90;;;;;;5068631;28;20052;-58
2022/07/19 04:13:48;;;;;;;21.48;8.80;;;18.10;99.90;;;;;;5057418;28;20123;-59
2022/07/19 04:16:13;;;;;;;9.80;7.50;;;18.10;99.90;;;;;;5066213;28;20048;-59
2022/07/19 04:18:39;;;;;;;11.80;8.27;;;18.10;99.90;;;;;;5064339;28;20429;-59
2022/07/19 04:21:05;;;;;;;11.18;7.18;;;18.10;99.90;;;;;;5061088;28;20041;-59
2022/07/19 04:23:31;;;;;;;10.38;7.75;;;18.10;99.90;;;;;;5063628;28;20643;-59
2022/07/19 04:25:57;;;;;;;12.15;8.10;;;18.10;99.90;;;;;;5055538;28;20557;-58
2022/07/19 04:28:23;;;;;;;13.90;7.93;;;18.10;99.90;;;;;;5047444;28;20157;-59
2022/07/19 04:30:49;;;;;;;11.07;8.45;;;18.10;99.90;;;;;;5062615;28;20119;-59
2022/07/19 04:33:16;;;;;;;11.85;7.65;;;18.10;99.90;;;;;;5068023;28;20040;-59
2022/07/19 04:35:43;;;;;;;11.40;8.40;;;18.10;99.90;;;;;;5066358;28;20401;-59
2022/07/19 04:38:08;;;;;;;13.13;7.40;;;18.20;99.90;;;;;;5067412;28;20495;-59
2022/07/19 04:40:34;;;;;;;10.18;7.15;;;18.20;99.90;;;;;;5050711;28;20044;-59
2022/07/19 04:43:00;;;;;;;9.57;6.75;;;18.20;99.90;;;;;;5049048;28;20036;-59
2022/07/19 04:45:26;;;;;;;7.95;5.75;;;18.20;99.90;;;;;;5050387;28;20051;-59
2022/07/19 04:47:51;;;;;;;9.27;7.07;;;18.30;99.90;;;;;;5084486;28;20052;-59
2022/07/19 04:50:17;;;;;;;13.02;8.88;;;18.30;99.90;;;;;;5067690;28;20426;-59
2022/07/19 04:52:43;;;;;;;13.15;8.40;;;18.40;99.90;;;;;;5065877;28;20037;-59
2022/07/19 04:55:09;;;;;;;14.50;10.32;;;18.40;99.90;;;;;;5068822;28;20090;-59
2022/07/19 04:57:35;;;;;;;11.68;8.70;;;18.40;99.90;;;;;;5062546;28;20562;-59
2022/07/19 05:00:03;;;;;;;11.80;9.32;;;18.50;99.90;;;;;;5065397;28;20178;-60
2022/07/19 05:02:29;;;;;;;11.88;7.68;;;18.50;99.90;;;;;;5054339;28;20044;-59
2022/07/19 05:04:54;;;;;;;10.43;8.05;;;18.60;99.90;;;;;;5066976;28;20058;-59
2022/07/19 05:07:21;;;;;;;9.70;6.90;;;18.60;99.90;;;;;;5061401;28;20292;-59
2022/07/19 05:09:46;;;;;;;10.68;6.45;;;18.70;99.90;;;;;;5047732;28;20041;-59
2022/07/19 05:12:12;;;;;;;8.77;7.05;;;18.70;99.90;;;;;;5066737;28;20389;-59
2022/07/19 05:14:38;;;;;;;13.00;7.38;;;18.80;99.90;;;;;;5066318;28;20040;-59
2022/07/19 05:17:03;;;;;;;9.60;6.35;;;18.80;99.90;;;;;;5065725;28;20110;-59
2022/07/19 05:19:29;;;;;;;10.07;7.40;;;18.90;99.90;;;;;;5063293;28;20491;-59
2022/07/19 05:21:55;;;;;;;8.63;6.57;;;18.90;99.90;;;;;;5064945;28;20071;-62
2022/07/19 05:24:20;;;;;;;11.05;7.72;;;19.00;99.90;;;;;;5059288;28;20527;-59
2022/07/19 05:26:46;;;;;;;11.02;7.43;;;19.10;99.90;;;;;;5050493;28;20098;-59
2022/07/19 05:29:12;;;;;;;8.48;6.28;;;19.20;99.90;;;;;;5065273;28;20552;-59
2022/07/19 05:31:38;;;;;;;10.13;6.97;;;19.30;99.90;;;;;;5062944;28;20036;-59
2022/07/19 05:34:03;;;;;;;9.32;6.38;;;19.40;99.90;;;;;;5067066;28;20040;-59
2022/07/19 05:36:29;;;;;;;8.38;5.82;;;19.50;99.90;;;;;;5061485;28;20045;-59
2022/07/19 05:38:55;;;;;;;11.48;7.30;;;19.60;99.90;;;;;;5067540;28;20532;-61
2022/07/19 05:41:22;;;;;;;9.80;7.07;;;19.70;99.90;;;;;;5083736;28;20094;-59
2022/07/19 05:43:49;;;;;;;9.52;6.82;;;19.80;99.90;;;;;;5066843;28;20039;-59
2022/07/19 05:46:15;;;;;;;8.07;6.13;;;19.90;99.90;;;;;;5062568;28;20052;-59
2022/07/19 05:48:41;;;;;;;8.82;5.97;;;20.00;99.90;;;;;;5066502;28;20044;-59
2022/07/19 05:51:06;;;;;;;8.35;6.07;;;20.10;99.90;;;;;;5066703;28;20047;-59
2022/07/19 05:53:32;;;;;;;8.80;6.70;;;20.10;99.90;;;;;;5066001;28;20434;-61
2022/07/19 05:55:58;;;;;;;11.50;7.20;;;20.20;99.90;;;;;;5082458;28;20037;-59
2022/07/19 05:58:24;;;;;;;9.57;6.45;;;20.30;99.90;;;;;;5051099;28;20040;-58
2022/07/19 06:03:34;;;;;;;8.55;5.78;;;20.60;99.90;;;;;;5070762;28;20128;-61
2022/07/19 06:06:00;;;;;;;16.70;7.32;;;20.70;99.90;;;;;;5070628;28;20135;-61
2022/07/19 06:08:26;;;;;;;7.68;5.72;;;20.80;99.90;;;;;;5069453;28;20551;-60
2022/07/19 06:10:52;;;;;;;9.20;6.50;;;20.90;99.90;;;;;;5053952;28;20446;-59
2022/07/19 06:13:17;;;;;;;8.20;6.18;;;21.00;99.90;;;;;;5069807;28;20131;-61
2022/07/19 06:15:43;;;;;;;9.65;5.70;;;21.00;99.90;;;;;;5064677;28;20047;-59
2022/07/19 06:18:09;;;;;;;7.63;5.93;;;21.20;99.90;;;;;;5070502;28;20044;-58
2022/07/19 06:20:34;;;;;;;7.82;6.10;;;21.30;99.90;;;;;;5037785;28;20469;-61
2022/07/19 06:23:00;;;;;;;8.32;5.35;;;21.40;99.90;;;;;;5070534;28;20044;-61
2022/07/19 06:25:26;;;;;;;7.78;5.22;;;21.40;99.90;;;;;;5031321;28;20044;-61
2022/07/19 06:27:52;;;;;;;8.88;5.45;;;21.50;99.90;;;;;;5084690;22;20403;-56
2022/07/19 06:30:18;;;;;;;8.38;5.75;;;21.60;99.90;;;;;;5072549;28;20132;-57
2022/07/19 06:32:44;;;;;;;9.65;4.80;;;21.70;99.90;;;;;;5028043;28;20037;-57
2022/07/19 06:35:10;;;;;;;7.32;5.47;;;21.90;99.90;;;;;;5066264;28;20037;-56
2022/07/19 06:37:36;;;;;;;10.88;6.28;;;22.00;99.90;;;;;;5057421;28;20041;-57
2022/07/19 06:40:02;;;;;;;9.18;5.60;;;22.10;99.90;;;;;;5056432;28;20102;-57
2022/07/19 06:42:28;;;;;;;7.93;5.35;;;22.20;99.90;;;;;;5025503;28;20109;-58
2022/07/19 06:44:54;;;;;;;8.98;5.13;;;22.30;99.90;;;;;;5022273;28;20095;-57
2022/07/19 06:47:19;;;;;;;9.60;6.20;;;22.40;99.90;;;;;;5069518;28;20041;-58
2022/07/19 06:49:45;;;;;;;9.00;5.82;;;22.50;99.90;;;;;;5065247;28;20411;-57
2022/07/19 06:52:11;;;;;;;8.85;5.97;;;22.60;99.90;;;;;;5063937;28;20041;-58
2022/07/19 06:54:36;;;;;;;11.98;5.53;;;22.70;99.90;;;;;;5048679;28;20040;-57
2022/07/19 06:57:02;;;;;;;9.25;5.20;;;22.80;99.80;;;;;;5060637;28;20033;-58
2022/07/19 06:59:28;;;;;;;8.32;5.22;;;22.90;99.50;;;;;;5030107;28;20625;-58
2022/07/19 07:01:54;;;;;;;9.18;5.32;;;23.00;99.40;;;;;;5044946;28;20068;-57
2022/07/19 07:04:19;;;;;;;8.93;4.82;;;23.10;99.00;;;;;;5043348;28;20821;-55
2022/07/19 07:06:45;;;;;;;7.22;4.47;;;23.20;99.10;;;;;;5028348;28;20081;-57
2022/07/19 07:09:11;;;;;;;7.07;4.03;;;23.40;99.00;;;;;;5050419;28;20317;-58
2022/07/19 07:11:37;;;;;;;7.30;4.45;;;23.50;98.50;;;;;;5063078;28;20045;-58
2022/07/19 07:14:02;;;;;;;10.07;4.63;;;23.60;98.20;;;;;;5051551;28;20041;-58
2022/07/19 07:16:28;;;;;;;6.88;4.15;;;23.80;97.90;;;;;;5049406;28;20044;-58
2022/07/19 07:18:54;;;;;;;8.70;4.85;;;23.80;97.80;;;;;;5020480;28;20041;-56
2022/07/19 07:21:20;;;;;;;8.38;4.28;;;24.00;97.80;;;;;;5060336;28;20415;-57
2022/07/19 07:23:45;;;;;;;6.55;3.78;;;24.10;97.70;;;;;;5034205;28;20048;-58
2022/07/19 07:26:11;;;;;;;8.73;4.07;;;24.20;97.60;;;;;;5058520;28;20487;-58
2022/07/19 07:28:37;;;;;;;6.85;3.72;;;24.30;97.60;;;;;;5047203;28;20080;-58
2022/07/19 07:31:03;;;;;;;8.10;3.90;;;24.40;97.40;;;;;;5044063;28;20066;-57
2022/07/19 07:33:29;;;;;;;9.20;4.35;;;24.50;97.60;;;;;;5016851;28;20041;-58
2022/07/19 07:35:55;;;;;;;5.65;3.53;;;24.60;97.30;;;;;;5029015;28;20156;-58
2022/07/19 07:38:20;;;;;;;6.13;4.35;;;24.70;97.20;;;;;;5055257;28;20048;-57
2022/07/19 07:40:46;;;;;;;5.80;3.95;;;24.90;97.20;;;;;;5027812;28;20466;-58
2022/07/19 07:43:12;;;;;;;5.03;3.55;;;24.90;96.90;;;;;;5063468;28;20037;-58
2022/07/19 07:45:38;;;;;;;4.10;3.40;;;25.10;97.20;;;;;;5040446;28;20100;-57
2022/07/19 07:48:04;;;;;;;4.75;3.80;;;25.30;96.90;;;;;;5028248;28;20041;-58
2022/07/19 07:50:29;;;;;;;6.32;3.00;;;25.40;96.60;;;;;;5025025;28;20047;-58
2022/07/19 07:52:55;;;;;;;6.70;3.38;;;25.50;96.60;;;;;;5053460;28;20120;-58
2022/07/19 07:55:21;;;;;;;6.20;3.42;;;25.60;96.50;;;;;;5025107;28;20037;-58
2022/07/19 07:57:46;;;;;;;7.65;3.15;;;25.70;95.90;;;;;;5036005;28;20452;-58
2022/07/19 08:00:13;;;;;;;7.50;3.17;;;25.80;95.50;;;;;;5059584;28;20049;-58
2022/07/19 08:02:43;;;;;;;9.43;3.50;;;25.90;95.30;;;;;;5061635;28;20496;-59
2022/07/19 08:05:10;;;;;;;9.25;3.50;;;26.00;95.10;;;;;;5048812;28;20142;-59
2022/07/19 08:07:37;;;;;;;6.05;3.20;;;26.20;94.80;;;;;;5022615;28;20044;-57
2022/07/19 08:10:06;;;;;;;7.35;3.25;;;26.30;94.90;;;;;;5025304;28;20033;-58
2022/07/19 08:12:32;;;;;;;5.18;3.17;;;26.50;94.80;;;;;;5017298;28;20028;-57
2022/07/19 08:14:58;;;;;;;6.40;3.67;;;26.60;94.40;;;;;;5055500;28;20041;-58
2022/07/19 08:17:24;;;;;;;6.63;3.00;;;26.70;94.00;;;;;;5063551;28;20048;-58
2022/07/19 08:19:49;;;;;;;4.63;2.70;;;26.80;94.00;;;;;;5041491;28;20052;-58
2022/07/19 08:22:16;;;;;;;6.60;2.90;;;26.90;94.20;;;;;;5060503;28;20130;-59
2022/07/19 08:24:42;;;;;;;4.97;2.80;;;27.00;93.40;;;;;;5063621;28;20052;-58
2022/07/19 08:27:08;;;;;;;5.32;2.85;;;27.10;93.20;;;;;;5011206;28;20558;-59
2022/07/19 08:29:34;;;;;;;6.45;2.80;;;27.30;93.10;;;;;;5063152;28;20125;-59
2022/07/19 08:32:00;;;;;;;5.63;2.55;;;27.40;92.30;;;;;;5024119;28;20076;-59
2022/07/19 08:34:25;;;;;;;5.95;2.50;;;27.40;92.10;;;;;;5044015;28;20059;-59
2022/07/19 08:36:51;;;;;;;5.13;2.65;;;27.60;92.20;;;;;;5027206;28;20130;-59
2022/07/19 08:39:17;;;;;;;4.10;2.60;;;27.70;91.40;;;;;;5040179;28;20049;-58
2022/07/19 08:42:01;;;;;;;4.72;2.38;;;27.70;90.80;;;;;;5062731;28;20037;-59
2022/07/19 08:44:28;;;;;;;4.70;2.25;;;27.80;91.10;;;;;;5040515;28;20444;-59
2022/07/19 08:46:54;;;;;;;6.18;2.30;;;28.00;90.50;;;;;;5046135;28;20032;-59
2022/07/19 08:49:21;;;;;;;3.80;2.60;;;28.10;89.70;;;;;;5046255;28;20407;-59
2022/07/19 08:51:48;;;;;;;5.30;2.50;;;28.20;89.70;;;;;;5064098;28;20052;-59
2022/07/19 08:54:14;;;;;;;4.85;2.38;;;28.30;88.90;;;;;;5028145;28;20480;-59
2022/07/19 08:59:25;;;;;;;5.35;2.20;;;28.60;89.10;;;;;;5042498;28;20045;-59
2022/07/19 09:01:51;;;;;;;5.15;2.22;;;28.80;89.50;;;;;;5052518;28;20213;-59
2022/07/19 09:04:19;;;;;;;7.53;2.78;;;28.90;87.60;;;;;;5063398;28;20044;-58
2022/07/19 09:06:48;;;;;;;4.85;2.50;;;29.10;88.00;;;;;;5057323;28;20041;-59
2022/07/19 09:09:17;;;;;;;5.10;2.42;;;29.10;88.40;;;;;;5040700;28;20068;-59
2022/07/19 09:11:48;;;;;;;3.10;2.17;;;29.30;88.90;;;;;;5057677;28;20149;-59
2022/07/19 09:14:20;;;;;;;5.47;2.50;;;29.40;86.50;;;;;;5072004;28;20416;-58
2022/07/19 09:16:49;;;;;;;5.18;2.10;;;29.50;85.00;;;;;;5057226;28;20052;-59
2022/07/19 09:19:15;;;;;;;4.75;1.80;;;29.70;84.00;;;;;;5022246;28;20052;-59
2022/07/19 09:22:08;;;;;;;4.15;2.20;;;29.80;81.30;;;;;;5057972;28;20041;-59
2022/07/19 09:24:37;;;;;;;5.50;2.27;;;29.80;81.20;;;;;;5058692;28;20036;-59
2022/07/19 09:27:07;;;;;;;5.55;2.58;;;30.00;79.80;;;;;;5045202;28;20033;-58
2022/07/19 09:29:35;;;;;;;3.55;2.13;;;30.10;79.90;;;;;;5057867;28;20063;-58
2022/07/19 09:32:02;;;;;;;4.32;2.15;;;30.20;79.50;;;;;;5076322;28;20429;-57
2022/07/19 09:34:30;;;;;;;7.65;2.47;;;30.30;78.20;;;;;;5049246;28;20044;-57
2022/07/19 09:37:14;;;;;;;3.95;2.17;;;30.40;78.00;;;;;;5027288;28;20060;-57
2022/07/19 09:39:45;;;;;;;4.63;2.28;;;30.60;75.40;;;;;;5064123;28;20037;-59
2022/07/19 09:42:12;;;;;;;6.90;2.33;;;30.70;74.00;;;;;;5028544;28;20116;-58
2022/07/19 09:44:38;;;;;;;4.95;2.30;;;30.80;73.60;;;;;;5066423;28;20049;-57
2022/07/19 09:47:03;;;;;;;5.25;2.55;;;30.80;73.00;;;;;;5028819;28;20043;-57
2022/07/19 09:49:29;;;;;;;6.13;2.15;;;30.90;73.40;;;;;;5042968;28;20072;-60
2022/07/19 09:51:55;;;;;;;3.60;2.00;;;31.00;72.70;;;;;;5062016;28;20431;-60
2022/07/19 09:54:26;;;;;;;3.63;1.73;;;31.10;71.80;;;;;;5027501;28;20052;-60
2022/07/19 09:56:53;;;;;;;2.92;2.00;;;31.20;72.70;;;;;;5018809;28;20037;-57
2022/07/19 09:59:21;;;;;;;3.45;1.92;;;31.30;71.80;;;;;;5054788;28;20096;-58
2022/07/19 10:01:48;;;;;;;5.68;2.40;;;31.50;72.80;;;;;;5073702;28;20045;-58
2022/07/19 10:04:16;;;;;;;4.03;2.47;;;31.60;69.60;;;;;;5059632;28;20044;-60
2022/07/19 10:06:43;;;;;;;6.75;2.25;;;31.70;69.10;;;;;;5034823;28;20033;-58
2022/07/19 10:09:11;;;;;;;3.35;1.95;;;31.70;67.10;;;;;;5017677;28;20036;-58
2022/07/19 10:11:37;;;;;;;4.72;2.25;;;31.70;66.80;;;;;;5050216;28;20066;-58
2022/07/19 10:14:04;;;;;;;5.22;2.30;;;31.80;68.30;;;;;;5027609;28;20514;-58
2022/07/19 10:16:48;;;;;;;7.63;2.25;;;31.90;67.60;;;;;;5055381;28;20037;-58
2022/07/19 10:19:18;;;;;;;6.53;2.17;;;32.00;68.00;;;;;;5061218;28;20452;-59
2022/07/19 10:21:45;;;;;;;3.53;2.05;;;32.10;67.40;;;;;;5024134;28;20128;-59
2022/07/19 10:24:11;;;;;;;6.32;2.17;;;32.10;66.40;;;;;;5042303;28;20498;-59
2022/07/19 10:26:38;;;;;;;4.38;2.10;;;32.20;68.00;;;;;;5035982;28;20091;-59
2022/07/19 10:29:17;;;;;;;5.18;2.30;;;32.30;66.90;;;;;;5054771;28;20069;-60
2022/07/19 10:32:05;;;;;;;4.70;2.10;;;32.50;67.20;;;;;;5028397;28;20123;-59
2022/07/19 10:34:31;;;;;;;4.57;2.00;;;32.50;64.60;;;;;;5029641;28;20498;-59
2022/07/19 10:36:56;;;;;;;4.80;2.40;;;32.60;66.20;;;;;;5044976;28;20044;-60
2022/07/19 10:39:26;;;;;;;5.13;2.42;;;32.70;64.50;;;;;;5062712;28;20082;-60
2022/07/19 10:42:05;;;;;;;6.22;2.28;;;32.70;64.60;;;;;;5026990;28;20039;-59
2022/07/19 10:44:32;;;;;;;4.50;2.13;;;32.90;63.60;;;;;;5045221;28;20038;-60
2022/07/19 10:46:58;;;;;;;2.90;2.10;;;32.90;62.60;;;;;;5043492;28;20112;-60
2022/07/19 10:49:44;;;;;;;5.80;2.20;;;33.00;63.90;;;;;;5053772;28;20132;-60
2022/07/19 10:52:28;;;;;;;4.40;2.72;;;33.20;60.70;;;;;;5046515;28;20032;-59
2022/07/19 10:55:16;;;;;;;3.58;1.80;;;33.30;63.60;;;;;;5047320;28;20036;-60
2022/07/19 10:58:02;;;;;;;5.30;1.90;;;33.40;60.70;;;;;;5061537;28;20037;-60
2022/07/19 11:00:30;;;;;;;4.28;2.20;;;33.50;60.60;;;;;;5027137;28;20186;-60
2022/07/19 11:03:21;;;;;;;4.80;2.10;;;33.50;59.00;;;;;;5034019;28;20033;-60
2022/07/19 11:05:48;;;;;;;4.00;2.03;;;33.60;56.70;;;;;;5064308;28;20041;-59
2022/07/19 11:08:14;;;;;;;3.80;2.15;;;33.70;58.10;;;;;;5034280;28;20064;-60
2022/07/19 11:10:39;;;;;;;3.25;1.80;;;33.70;56.20;;;;;;5057318;28;20506;-61
2022/07/19 11:13:05;;;;;;;4.88;1.90;;;33.70;56.80;;;;;;5054240;28;20037;-59
2022/07/19 11:15:31;;;;;;;4.63;2.15;;;33.70;57.30;;;;;;5059049;28;20116;-59
2022/07/19 11:18:07;;;;;;;2.55;1.92;;;33.90;57.40;;;;;;5044206;28;20045;-58
2022/07/19 11:20:35;;;;;;;4.05;2.00;;;34.10;58.00;;;;;;5045641;28;20045;-59
2022/07/19 11:23:04;;;;;;;6.50;2.10;;;34.10;56.70;;;;;;5039560;28;20573;-61
2022/07/19 11:25:35;;;;;;;4.65;1.80;;;34.20;56.50;;;;;;5021751;28;20158;-59
2022/07/19 11:28:02;;;;;;;6.28;1.80;;;34.40;54.10;;;;;;5028157;28;20040;-59
2022/07/19 11:30:30;;;;;;;3.17;1.60;;;34.30;53.00;;;;;;5050617;28;20080;-59
2022/07/19 11:33:02;;;;;;;3.00;1.50;;;34.40;55.20;;;;;;5057634;28;20048;-59
2022/07/19 11:35:28;;;;;;;3.05;1.30;;;34.50;55.00;;;;;;5044009;28;20123;-59
2022/07/19 11:37:55;;;;;;;3.72;1.80;;;34.60;54.20;;;;;;5061783;28;20068;-58
2022/07/19 11:40:23;;;;;;;4.75;1.88;;;34.70;53.10;;;;;;5061577;28;20048;-57
2022/07/19 11:42:50;;;;;;;2.05;1.35;;;34.80;52.40;;;;;;5048467;28;20033;-60
2022/07/19 11:45:25;;;;;;;2.58;1.38;;;34.80;52.70;;;;;;5065250;28;20076;-58
2022/07/19 11:47:53;;;;;;;4.50;1.77;;;34.90;51.30;;;;;;5023017;28;20307;-59
2022/07/19 11:50:22;;;;;;;3.85;1.60;;;34.90;52.40;;;;;;5024463;28;20411;-58
2022/07/19 11:53:07;;;;;;;3.92;1.90;;;34.90;51.70;;;;;;5043448;28;20037;-57
2022/07/19 11:55:38;;;;;;;1.83;1.30;;;35.00;51.20;;;;;;5042074;28;20543;-60
2022/07/19 11:58:08;;;;;;;2.28;1.35;;;35.10;50.80;;;;;;5045692;28;20495;-59
2022/07/19 12:00:35;;;;;;;2.78;1.42;;;35.20;50.50;;;;;;5060739;28;20045;-57
2022/07/19 12:03:09;;;;;;;5.90;1.58;;;35.30;53.10;;;;;;5034600;28;20044;-59
2022/07/19 12:05:37;;;;;;;3.10;1.48;;;35.50;52.20;;;;;;5059339;28;20045;-59
2022/07/19 12:08:05;;;;;;;2.58;1.42;;;35.60;50.20;;;;;;5070604;28;20044;-64
2022/07/19 12:10:40;;;;;;;2.80;1.30;;;35.60;49.40;;;;;;5063701;28;20077;-61
2022/07/19 12:13:07;;;;;;;3.88;1.63;;;35.60;49.60;;;;;;5025969;28;20037;-58
2022/07/19 12:16:09;;;;;;;4.18;1.70;;;35.60;49.90;;;;;;5050504;28;20045;-58
2022/07/19 12:18:54;;;;;;;3.25;1.33;;;35.60;48.10;;;;;;5022787;28;20681;-58
2022/07/19 12:21:20;;;;;;;2.28;1.30;;;35.80;49.30;;;;;;5050821;28;20040;-58
2022/07/19 12:24:22;;;;;;;3.80;1.77;;;35.80;48.90;;;;;;5055531;28;20044;-59
2022/07/19 12:27:11;;;;;;;4.50;1.40;;;35.80;47.50;;;;;;5066195;28;20040;-58
2022/07/19 12:29:45;;;;;;;2.17;1.50;;;35.90;47.90;;;;;;5089279;22;20328;-60
2022/07/19 12:32:25;;;;;;;2.88;1.50;;;35.90;48.80;;;;;;5068354;28;20081;-61
2022/07/19 12:34:59;;;;;;;2.75;1.48;;;36.00;48.00;;;;;;5079339;28;20092;-61
2022/07/19 12:37:37;;;;;;;3.83;1.60;;;36.10;48.60;;;;;;5067859;28;20442;-59
2022/07/19 12:40:08;;;;;;;3.72;1.70;;;36.30;49.10;;;;;;5063069;28;20578;-61
2022/07/19 12:42:50;;;;;;;2.90;1.63;;;36.40;48.90;;;;;;5069161;28;20051;-60
2022/07/19 12:45:18;;;;;;;3.03;1.27;;;36.50;48.40;;;;;;5059246;28;20106;-60
2022/07/19 12:47:45;;;;;;;3.67;1.52;;;36.60;48.30;;;;;;5068607;28;20067;-59
2022/07/19 12:50:24;;;;;;;2.17;1.55;;;36.70;47.80;;;;;;5069080;28;20033;-62